Time;durP1;ratioP1;P1;durP2;ratioP2;P2;SDS_P1;SDS_P2;PMS_P1;PMS_P2;Temp;Humidity;BMP_temperature;BMP_pressure;BME280_temperature;BME280_humidity;BME280_pressure;Samples;Min_cycle;Max_cycle;Signal;HPM_P1;HPM_P2
2021/09/09 03:46:45;;;;;;;13.70;7.10;;;;;;;;;;5414983;22;20061;-84
2021/09/09 03:49:11;;;;;;;11.17;6.77;;;;;;;;;;4977631;28;20034;-84
2021/09/09 03:51:36;;;;;;;13.97;7.50;;;;;;;;;;4946028;28;20033;-83
2021/09/09 03:54:01;;;;;;;15.13;7.60;;;;;;;;;;4946080;28;20062;-83
2021/09/09 03:56:27;;;;;;;14.67;7.67;;;;;;;;;;4935654;28;20022;-84
2021/09/09 03:58:52;;;;;;;14.87;7.37;;;;;;;;;;4942585;28;20118;-84
2021/09/09 04:01:18;;;;;;;13.37;6.57;;;;;;;;;;4962322;28;20486;-84
2021/09/09 04:03:46;;;;;;;13.27;7.00;;;;;;;;;;4945307;28;20054;-83
2021/09/09 04:06:11;;;;;;;13.07;6.90;;;;;;;;;;4942735;28;20026;-84
2021/09/09 04:08:36;;;;;;;14.67;7.07;;;;;;;;;;4945579;28;20018;-84
2021/09/09 04:11:02;;;;;;;15.20;7.60;;;;;;;;;;4961385;28;20133;-84
2021/09/09 04:13:27;;;;;;;17.10;7.93;;;;;;;;;;4961578;28;20061;-83
2021/09/09 04:15:54;;;;;;;15.27;7.65;;;;;;;;;;4978033;28;20108;-83
2021/09/09 04:18:19;;;;;;;15.17;7.73;;;;;;;;;;4960812;28;20073;-83
2021/09/09 04:20:44;;;;;;;14.90;7.57;;;;;;;;;;4961427;28;20105;-84
2021/09/09 04:23:10;;;;;;;14.90;7.40;;;;;;;;;;4961084;28;20125;-83
2021/09/09 04:25:35;;;;;;;13.17;7.33;;;;;;;;;;4961356;28;20104;-83
2021/09/09 04:28:00;;;;;;;12.90;7.63;;;;;;;;;;4961230;28;20406;-84
2021/09/09 04:30:26;;;;;;;15.73;7.73;;;;;;;;;;4960754;28;20109;-83
2021/09/09 04:32:51;;;;;;;15.20;7.23;;;;;;;;;;4944431;28;20022;-84
2021/09/09 04:35:19;;;;;;;14.40;7.30;;;;;;;;;;4955452;28;20691;-84
2021/09/09 04:37:44;;;;;;;13.85;6.95;;;;;;;;;;4942166;28;20126;-83
2021/09/09 04:40:10;;;;;;;14.77;7.57;;;;;;;;;;4941847;28;20101;-84
2021/09/09 04:42:35;;;;;;;14.20;7.50;;;;;;;;;;4941858;28;20015;-83
2021/09/09 04:45:01;;;;;;;14.43;7.30;;;;;;;;;;4941626;28;20058;-83
2021/09/09 04:47:26;;;;;;;15.20;7.60;;;;;;;;;;4944822;28;20120;-83
2021/09/09 04:49:51;;;;;;;17.07;7.87;;;;;;;;;;4944922;28;20081;-83
2021/09/09 04:52:17;;;;;;;13.87;7.80;;;;;;;;;;4960596;28;20061;-83
2021/09/09 05:25:46;;;;;;;13.30;6.50;;;;;;;;;;4994591;28;20046;-86
2021/09/09 05:42:40;;;;;;;11.23;5.93;;;;;;;;;;4877341;29;20048;-86
2021/09/09 05:45:06;;;;;;;12.52;5.57;;;;;;;;;;4866011;29;20044;-85
2021/09/09 07:31:31;;;;;;;12.45;7.72;;;;;;;;;;4993021;28;20053;-84
2021/09/09 08:01:09;;;;;;;10.05;7.32;;;;;;;;;;4992861;28;20049;-84
2021/09/09 09:10:56;;;;;;;10.75;6.93;;;;;;;;;;4994898;28;20056;-84
2021/09/09 09:13:33;;;;;;;23.75;7.60;;;;;;;;;;4960980;28;20041;-84
2021/09/09 09:15:58;;;;;;;12.00;7.22;;;;;;;;;;4962348;28;20114;-84
2021/09/09 09:18:24;;;;;;;9.57;6.85;;;;;;;;;;4944672;28;20034;-87
2021/09/09 09:20:51;;;;;;;11.05;6.72;;;;;;;;;;4961289;28;20113;-87
2021/09/09 09:23:26;;;;;;;10.40;6.90;;;;;;;;;;4945217;28;20026;-87
2021/09/09 09:25:53;;;;;;;12.85;6.70;;;;;;;;;;4945437;28;20023;-87
2021/09/09 09:28:38;;;;;;;9.85;7.10;;;;;;;;;;4977110;28;20053;-86
2021/09/09 09:31:06;;;;;;;20.42;6.90;;;;;;;;;;4977179;28;20390;-86
2021/09/09 09:33:40;;;;;;;14.55;7.10;;;;;;;;;;4961133;28;20080;-87
2021/09/09 09:36:15;;;;;;;10.65;6.50;;;;;;;;;;4960535;28;20064;-87
2021/09/09 09:38:41;;;;;;;9.32;6.32;;;;;;;;;;4970414;28;20058;-86
2021/09/09 09:41:06;;;;;;;18.20;7.28;;;;;;;;;;4945029;28;20062;-87
2021/09/09 09:43:31;;;;;;;11.65;6.72;;;;;;;;;;4960406;28;20395;-84
2021/09/09 09:45:58;;;;;;;8.35;6.15;;;;;;;;;;4960015;28;20110;-84
2021/09/09 09:48:44;;;;;;;8.77;5.78;;;;;;;;;;4960360;28;20034;-84
2021/09/09 09:51:09;;;;;;;10.00;6.43;;;;;;;;;;4975844;28;20068;-84
2021/09/09 09:53:35;;;;;;;9.95;6.15;;;;;;;;;;4943909;28;20129;-84
2021/09/09 09:56:00;;;;;;;14.98;6.88;;;;;;;;;;4944075;28;20117;-84
2021/09/09 09:58:25;;;;;;;9.90;6.70;;;;;;;;;;4943704;28;20026;-84
2021/09/09 10:01:02;;;;;;;10.40;6.80;;;;;;;;;;4962731;28;20398;-83
2021/09/09 10:03:27;;;;;;;10.73;7.30;;;;;;;;;;4975786;28;20029;-84
2021/09/09 10:05:53;;;;;;;11.05;6.72;;;;;;;;;;4943800;28;20465;-83
2021/09/09 10:08:18;;;;;;;11.27;6.07;;;;;;;;;;4956483;28;20029;-83
2021/09/09 10:10:46;;;;;;;10.82;6.80;;;;;;;;;;4924469;28;20171;-83
2021/09/09 10:13:12;;;;;;;11.13;6.65;;;;;;;;;;4940521;28;20447;-83
2021/09/09 10:15:37;;;;;;;10.90;7.10;;;;;;;;;;4924467;28;20122;-83
2021/09/09 10:18:12;;;;;;;10.95;7.40;;;;;;;;;;4940111;28;20117;-83
2021/09/09 10:20:43;;;;;;;11.98;7.57;;;;;;;;;;4956145;28;20030;-83
2021/09/09 10:23:14;;;;;;;11.65;6.70;;;;;;;;;;4939986;28;20030;-83
2021/09/09 10:25:58;;;;;;;13.82;7.43;;;;;;;;;;4940392;28;20153;-82
2021/09/09 10:28:40;;;;;;;13.48;7.30;;;;;;;;;;4939881;28;20038;-82
2021/09/09 10:31:18;;;;;;;28.92;7.88;;;;;;;;;;4955554;28;20101;-82
2021/09/09 10:33:48;;;;;;;15.35;7.82;;;;;;;;;;4924310;28;20031;-85
2021/09/09 10:36:39;;;;;;;12.20;6.80;;;;;;;;;;4956008;28;20165;-85
2021/09/09 10:39:08;;;;;;;18.98;7.90;;;;;;;;;;4988183;28;20025;-85
2021/09/09 10:41:34;;;;;;;15.95;7.55;;;;;;;;;;4940184;28;20030;-85
2021/09/09 10:44:06;;;;;;;;;;;;;;;;;;4956477;28;20034;-85
2021/09/09 10:46:33;;;;;;;14.82;7.88;;;;;;;;;;4988092;28;19952;-85
2021/09/09 10:49:17;;;;;;;15.27;8.25;;;;;;;;;;4940002;28;20483;-84
2021/09/09 10:58:35;;;;;;;13.63;7.38;;;;;;;;;;4973865;28;20042;-88
2021/09/09 11:08:42;;;;;;;10.80;6.63;;;;;;;;;;4908750;29;20088;-88
2021/09/09 11:11:18;;;;;;;10.43;6.20;;;;;;;;;;4906448;29;20068;-86
2021/09/09 11:13:45;;;;;;;10.82;6.13;;;;;;;;;;4940663;28;20027;-86
2021/09/09 11:16:20;;;;;;;10.95;6.30;;;;;;;;;;4971715;28;20113;-86
2021/09/09 11:18:46;;;;;;;10.38;5.93;;;;;;;;;;4955378;28;20225;-86
2021/09/09 11:21:18;;;;;;;9.73;5.40;;;;;;;;;;4939743;28;20476;-86
2021/09/09 11:23:44;;;;;;;9.70;6.10;;;;;;;;;;4924240;28;20037;-86
2021/09/09 11:26:13;;;;;;;8.65;5.03;;;;;;;;;;4939516;28;20030;-86
2021/09/09 11:28:39;;;;;;;9.32;5.15;;;;;;;;;;4955460;28;20042;-86
2021/09/09 11:31:16;;;;;;;9.30;5.03;;;;;;;;;;4940290;28;20071;-86
2021/09/09 11:33:55;;;;;;;11.85;5.80;;;;;;;;;;4958658;28;20053;-88
2021/09/09 11:36:22;;;;;;;11.75;5.40;;;;;;;;;;4955323;28;20023;-86
2021/09/09 11:38:48;;;;;;;9.05;4.75;;;;;;;;;;4941633;28;20045;-87
2021/09/09 11:41:16;;;;;;;;;;;;;;;;;;4960967;28;20109;-87
2021/09/09 11:43:52;;;;;;;12.93;5.53;;;;;;;;;;4978267;28;19914;-87
2021/09/09 11:46:30;;;;;;;7.97;5.00;;;;;;;;;;4979229;28;20048;-86
2021/09/09 11:48:58;;;;;;;8.48;5.63;;;;;;;;;;4962870;28;20034;-86
2021/09/09 11:51:33;;;;;;;11.60;5.50;;;;;;;;;;4946449;28;20038;-87
2021/09/09 11:53:59;;;;;;;8.45;4.80;;;;;;;;;;4977961;28;20041;-87
2021/09/09 11:56:28;;;;;;;7.25;4.47;;;;;;;;;;4962132;28;20030;-86
2021/09/09 11:58:58;;;;;;;18.90;6.72;;;;;;;;;;4961935;28;20037;-87
2021/09/09 12:01:23;;;;;;;8.40;4.97;;;;;;;;;;4945960;28;20483;-86
2021/09/09 12:03:48;;;;;;;7.00;4.72;;;;;;;;;;4961845;28;20044;-86
2021/09/09 12:06:18;;;;;;;7.80;5.07;;;;;;;;;;4945836;28;20121;-86
2021/09/09 12:08:46;;;;;;;9.00;4.80;;;;;;;;;;4946197;28;20033;-86
2021/09/09 12:11:12;;;;;;;7.88;4.40;;;;;;;;;;4945722;28;20087;-86
2021/09/09 12:13:43;;;;;;;8.98;4.60;;;;;;;;;;4961551;28;20023;-87
2021/09/09 12:16:18;;;;;;;9.18;4.50;;;;;;;;;;4946457;28;20030;-87
2021/09/09 12:18:45;;;;;;;12.05;4.60;;;;;;;;;;4978337;28;20038;-86
2021/09/09 12:21:16;;;;;;;9.60;4.45;;;;;;;;;;4961448;28;20030;-86
2021/09/09 12:24:01;;;;;;;9.30;3.90;;;;;;;;;;4945720;28;20025;-86
2021/09/09 12:26:27;;;;;;;10.82;4.40;;;;;;;;;;4961541;28;20113;-87
2021/09/09 12:28:52;;;;;;;7.47;4.43;;;;;;;;;;4961530;28;20033;-86
2021/09/09 12:31:38;;;;;;;7.60;4.10;;;;;;;;;;4961223;28;20035;-87
2021/09/09 12:34:10;;;;;;;8.32;4.88;;;;;;;;;;4976841;28;20360;-87
2021/09/09 12:36:44;;;;;;;7.82;4.18;;;;;;;;;;4945957;28;20055;-87
2021/09/09 12:39:10;;;;;;;13.52;4.07;;;;;;;;;;4961580;28;20050;-87
2021/09/09 12:41:35;;;;;;;7.43;4.20;;;;;;;;;;4961237;28;20098;-87
2021/09/09 12:44:02;;;;;;;8.48;4.80;;;;;;;;;;4960768;28;20411;-87
2021/09/09 12:46:41;;;;;;;7.68;4.47;;;;;;;;;;4977091;28;20479;-86
2021/09/09 12:49:20;;;;;;;11.15;4.45;;;;;;;;;;4945475;28;20392;-87
2021/09/09 12:51:47;;;;;;;9.25;4.60;;;;;;;;;;4976305;28;20037;-86
2021/09/09 12:54:14;;;;;;;7.75;4.75;;;;;;;;;;4960416;28;20081;-87
2021/09/09 12:56:53;;;;;;;10.32;4.45;;;;;;;;;;4944962;28;20030;-87
2021/09/09 12:59:21;;;;;;;11.20;4.45;;;;;;;;;;4960982;28;20057;-86
2021/09/09 13:01:47;;;;;;;8.32;4.30;;;;;;;;;;4961157;28;20018;-87
2021/09/09 13:04:12;;;;;;;10.00;4.70;;;;;;;;;;4960878;28;20117;-88
2021/09/09 13:06:37;;;;;;;8.57;5.05;;;;;;;;;;4944728;28;20173;-88
2021/09/09 13:09:03;;;;;;;10.80;4.50;;;;;;;;;;4960218;28;20144;-87
2021/09/09 13:11:28;;;;;;;8.90;5.00;;;;;;;;;;4960681;28;20478;-88
2021/09/09 13:13:54;;;;;;;8.20;4.90;;;;;;;;;;4960611;28;20475;-87
2021/09/09 13:16:19;;;;;;;12.60;5.38;;;;;;;;;;4944855;28;20022;-88
2021/09/09 13:18:45;;;;;;;7.67;4.70;;;;;;;;;;4944845;28;20145;-88
2021/09/09 13:21:17;;;;;;;;;;;;;;;;;;4945280;28;20026;-88
2021/09/09 13:23:42;;;;;;;7.70;4.47;;;;;;;;;;4976530;28;19914;-88
2021/09/09 13:26:10;;;;;;;7.97;4.63;;;;;;;;;;4960555;28;20116;-88
2021/09/09 13:29:11;;;;;;;10.48;5.18;;;;;;;;;;4964489;28;20034;-88
2021/09/09 13:31:49;;;;;;;9.55;4.53;;;;;;;;;;4993643;28;20049;-88
2021/09/09 13:34:20;;;;;;;7.25;4.25;;;;;;;;;;4960322;28;20034;-88
2021/09/09 13:36:55;;;;;;;39.92;17.25;;;;;;;;;;4960679;28;20034;-86
2021/09/09 13:39:20;;;;;;;9.40;5.05;;;;;;;;;;4956976;28;20050;-87
2021/09/09 13:41:52;;;;;;;8.23;4.70;;;;;;;;;;4924955;28;20050;-88
2021/09/09 13:44:20;;;;;;;9.35;4.65;;;;;;;;;;4956754;28;20038;-88
2021/09/09 13:46:45;;;;;;;8.27;5.00;;;;;;;;;;4924665;28;20145;-87
2021/09/09 13:49:11;;;;;;;10.40;4.70;;;;;;;;;;4925319;28;20134;-87
2021/09/09 13:51:37;;;;;;;8.15;4.68;;;;;;;;;;4940745;28;20345;-87
2021/09/09 14:31:15;;;;;;;8.25;4.55;;;;;;;;;;4933050;29;20071;-89
2021/09/09 14:43:48;;;;;;;8.75;4.68;;;;;;;;;;4981185;28;20096;-86
2021/09/09 14:46:15;;;;;;;7.13;4.43;;;;;;;;;;4943471;28;20069;-86
2021/09/09 14:48:41;;;;;;;8.57;4.80;;;;;;;;;;4959194;28;20118;-85
2021/09/09 14:51:06;;;;;;;8.65;5.00;;;;;;;;;;4958975;28;20113;-87
2021/09/09 14:53:32;;;;;;;7.40;4.30;;;;;;;;;;4958701;28;20121;-86
2021/09/09 14:55:57;;;;;;;7.87;4.27;;;;;;;;;;4958559;28;20356;-86
2021/09/09 14:58:22;;;;;;;5.97;4.40;;;;;;;;;;4959000;28;20357;-87
2021/09/09 15:00:48;;;;;;;6.00;3.92;;;;;;;;;;4959145;28;20606;-86
2021/09/09 15:03:13;;;;;;;8.52;4.10;;;;;;;;;;4958466;28;20046;-86
2021/09/09 15:05:40;;;;;;;6.60;4.05;;;;;;;;;;4958605;28;20549;-86
2021/09/09 15:08:05;;;;;;;10.48;3.72;;;;;;;;;;4942455;28;20038;-86
2021/09/09 15:10:32;;;;;;;7.18;4.03;;;;;;;;;;4942085;28;20474;-84
2021/09/09 15:12:58;;;;;;;7.82;3.45;;;;;;;;;;4974321;28;20507;-83
2021/09/09 15:15:23;;;;;;;;;;;;;;;;;;4959474;28;20113;-84
2021/09/09 15:17:48;;;;;;;6.77;3.50;;;;;;;;;;4977886;28;20000;-84
2021/09/09 15:20:14;;;;;;;6.90;3.60;;;;;;;;;;4962186;28;20066;-84
2021/09/09 15:22:39;;;;;;;6.95;3.67;;;;;;;;;;4962217;28;20018;-84
2021/09/09 15:25:05;;;;;;;;;;;;;;;;;;4960663;28;20024;-83
2021/09/09 15:27:30;;;;;;;6.13;3.58;;;;;;;;;;4978025;28;19913;-84
2021/09/09 15:29:55;;;;;;;7.20;3.60;;;;;;;;;;4962125;28;20065;-84
2021/09/09 15:32:21;;;;;;;7.45;3.92;;;;;;;;;;4961901;28;20133;-86
2021/09/09 15:34:46;;;;;;;6.90;3.80;;;;;;;;;;4962247;28;20432;-87
2021/09/09 15:37:13;;;;;;;6.33;3.70;;;;;;;;;;4962308;28;20432;-87
2021/09/09 15:39:43;;;;;;;11.13;4.00;;;;;;;;;;4978471;28;20846;-85
2021/09/09 15:42:10;;;;;;;7.53;3.85;;;;;;;;;;4933617;28;20038;-88
2021/09/09 15:44:36;;;;;;;6.70;3.83;;;;;;;;;;4962619;28;20069;-88
2021/09/09 15:47:01;;;;;;;6.35;3.90;;;;;;;;;;4962346;28;20121;-88
2021/09/09 15:49:26;;;;;;;7.72;4.07;;;;;;;;;;4962394;28;20041;-88
2021/09/09 15:51:52;;;;;;;6.73;3.77;;;;;;;;;;4961878;28;20129;-85
2021/09/09 15:54:17;;;;;;;7.53;4.03;;;;;;;;;;4961856;28;20709;-84
2021/09/09 15:56:43;;;;;;;6.40;3.90;;;;;;;;;;4961923;28;20125;-85
2021/09/09 15:59:08;;;;;;;5.03;3.40;;;;;;;;;;4960068;28;20309;-85
2021/09/09 16:01:33;;;;;;;6.90;3.70;;;;;;;;;;4962333;28;20487;-85
2021/09/09 16:04:02;;;;;;;7.97;4.45;;;;;;;;;;4945723;28;20106;-85
2021/09/09 16:47:11;;;;;;;8.73;4.57;;;;;;;;;;4975736;28;20045;-89
2021/09/09 19:07:39;;;;;;;11.70;4.85;;;;;;;;;;4992768;28;20474;-87
2021/09/09 19:10:05;;;;;;;11.40;5.07;;;;;;;;;;4991229;28;20491;-83
2021/09/09 19:12:31;;;;;;;10.88;4.85;;;;;;;;;;4942332;28;20097;-83
2021/09/09 19:14:56;;;;;;;8.97;4.90;;;;;;;;;;4955805;28;20070;-83
2021/09/09 19:17:21;;;;;;;8.77;4.87;;;;;;;;;;4939554;28;20058;-83
2021/09/09 19:19:47;;;;;;;9.30;4.73;;;;;;;;;;4955489;28;20110;-84
2021/09/09 19:22:14;;;;;;;8.60;4.50;;;;;;;;;;4955376;28;20050;-83
2021/09/09 19:24:40;;;;;;;8.13;4.68;;;;;;;;;;4955384;28;20034;-83
2021/09/09 19:27:05;;;;;;;9.33;4.87;;;;;;;;;;4954537;28;20019;-83
2021/09/09 19:29:31;;;;;;;8.20;4.70;;;;;;;;;;4957881;28;20077;-82
2021/09/09 19:31:56;;;;;;;10.00;5.10;;;;;;;;;;4942186;28;20030;-83
2021/09/09 19:34:21;;;;;;;9.00;5.10;;;;;;;;;;4958270;28;20054;-83
2021/09/09 19:36:47;;;;;;;9.37;5.20;;;;;;;;;;4956003;28;20825;-82
2021/09/09 19:39:12;;;;;;;8.33;5.00;;;;;;;;;;4958597;28;20531;-84
2021/09/09 19:41:39;;;;;;;9.73;5.73;;;;;;;;;;4959107;28;20129;-85
2021/09/09 19:44:30;;;;;;;9.60;5.40;;;;;;;;;;4965111;28;20038;-86
2021/09/09 19:46:57;;;;;;;9.65;5.20;;;;;;;;;;4970721;28;20781;-88
2021/09/09 19:56:25;;;;;;;12.02;5.25;;;;;;;;;;4971229;28;20667;-86
2021/09/09 19:59:07;;;;;;;11.63;6.05;;;;;;;;;;4971995;28;20458;-83
2021/09/09 20:01:33;;;;;;;9.40;6.00;;;;;;;;;;4935623;28;20050;-83
2021/09/09 20:03:58;;;;;;;12.50;5.87;;;;;;;;;;4966939;28;20033;-83
2021/09/09 20:06:23;;;;;;;9.87;5.43;;;;;;;;;;4956410;28;20036;-85
2021/09/09 20:08:49;;;;;;;9.03;5.53;;;;;;;;;;4940694;28;20029;-84
2021/09/09 20:11:14;;;;;;;12.30;5.53;;;;;;;;;;4939769;28;20126;-83
2021/09/09 20:13:39;;;;;;;10.33;5.50;;;;;;;;;;4957209;28;20062;-84
2021/09/09 20:16:05;;;;;;;9.67;5.53;;;;;;;;;;4940650;28;20026;-84
2021/09/09 20:18:31;;;;;;;12.52;5.45;;;;;;;;;;4956069;28;20121;-84
2021/09/09 20:20:56;;;;;;;9.77;5.00;;;;;;;;;;4972395;28;20116;-83
2021/09/09 20:23:21;;;;;;;8.10;5.00;;;;;;;;;;4956151;28;20030;-84
2021/09/09 20:25:47;;;;;;;9.83;5.23;;;;;;;;;;4957079;28;20054;-83
2021/09/09 20:28:12;;;;;;;11.23;5.87;;;;;;;;;;4954066;28;20544;-83
2021/09/09 20:30:39;;;;;;;9.97;5.07;;;;;;;;;;4951901;28;20057;-83
2021/09/09 20:33:04;;;;;;;;;;;;;;;;;;4944220;28;20050;-83
2021/09/09 20:35:29;;;;;;;10.17;5.23;;;;;;;;;;4939423;28;19973;-83
2021/09/09 20:37:55;;;;;;;8.20;5.30;;;;;;;;;;4941673;28;20035;-83
2021/09/09 20:40:20;;;;;;;12.63;5.60;;;;;;;;;;4956890;28;20134;-83
2021/09/09 20:42:45;;;;;;;10.53;5.53;;;;;;;;;;4976481;28;20110;-83
2021/09/09 20:45:11;;;;;;;10.40;6.00;;;;;;;;;;4960578;28;20037;-83
2021/09/09 20:47:36;;;;;;;9.10;5.30;;;;;;;;;;4960433;28;20018;-83
2021/09/09 20:50:02;;;;;;;9.87;5.77;;;;;;;;;;4960354;28;20028;-83
2021/09/09 20:52:28;;;;;;;10.43;5.68;;;;;;;;;;4940896;28;20042;-83
2021/09/09 20:54:53;;;;;;;11.33;6.07;;;;;;;;;;4941777;28;20073;-83
2021/09/09 20:57:18;;;;;;;11.23;5.47;;;;;;;;;;4944436;28;20117;-83
2021/09/09 20:59:44;;;;;;;12.63;5.63;;;;;;;;;;4960039;28;20131;-84
